createdAt,value
2019-01-11T00:01:51.173Z,0.10
2019-01-11T00:04:20.062Z,0.00
2019-01-11T00:06:49.007Z,0.00
2019-01-11T00:09:19.166Z,-0.10
2019-01-11T00:11:48.164Z,-0.10
2019-01-11T00:14:17.824Z,-0.20
2019-01-11T00:16:46.692Z,-0.10
2019-01-11T00:19:15.654Z,-0.10
2019-01-11T00:21:44.806Z,-0.10
2019-01-11T00:24:13.685Z,-0.10
2019-01-11T00:26:42.476Z,-0.10
2019-01-11T00:29:11.365Z,-0.10
2019-01-11T00:31:40.230Z,-0.10
2019-01-11T00:34:10.201Z,-0.10
2019-01-11T00:36:39.376Z,-0.10
2019-01-11T00:39:09.149Z,-0.10
2019-01-11T00:41:38.139Z,-0.20
2019-01-11T00:44:07.089Z,-0.10
2019-01-11T00:46:36.278Z,-0.20
2019-01-11T00:49:05.834Z,-0.20
2019-01-11T00:51:35.094Z,-0.20
2019-01-11T00:54:05.140Z,-0.20
2019-01-11T00:56:34.061Z,-0.10
2019-01-11T00:59:02.941Z,-0.10
2019-01-11T01:01:32.174Z,0.00
2019-01-11T01:04:01.367Z,0.00
2019-01-11T01:06:30.593Z,0.10
2019-01-11T01:08:59.478Z,0.00
2019-01-11T01:11:29.541Z,0.00
2019-01-11T01:13:58.411Z,0.00
2019-01-11T01:16:27.260Z,-0.10
2019-01-11T01:18:56.048Z,-0.20
2019-01-11T01:21:24.876Z,-0.10
2019-01-11T01:23:53.806Z,-0.10
2019-01-11T01:26:22.670Z,-0.10
2019-01-11T01:28:51.626Z,-0.20
2019-01-11T01:31:20.509Z,-0.20
2019-01-11T01:33:49.456Z,-0.20
2019-01-11T01:36:18.696Z,-0.20
2019-01-11T01:38:47.584Z,-0.20
2019-01-11T01:41:16.502Z,-0.20
2019-01-11T01:43:45.300Z,-0.30
2019-01-11T01:46:14.233Z,-0.20
2019-01-11T01:48:43.119Z,-0.30
2019-01-11T01:51:12.276Z,-0.30
2019-01-11T01:53:41.141Z,-0.30
2019-01-11T01:56:09.948Z,-0.30
2019-01-11T01:58:39.120Z,-0.30
2019-01-11T02:01:08.052Z,-0.30
2019-01-11T02:03:36.850Z,-0.30
2019-01-11T02:06:05.816Z,-0.30
2019-01-11T02:08:34.722Z,-0.30
2019-01-11T02:11:03.533Z,-0.40
2019-01-11T02:13:32.341Z,-0.40
2019-01-11T02:16:01.283Z,-0.40
2019-01-11T02:18:30.166Z,-0.40
2019-01-11T02:20:59.057Z,-0.40
2019-01-11T02:23:28.336Z,-0.50
2019-01-11T02:25:57.296Z,-0.50
2019-01-11T02:28:26.124Z,-0.50
2019-01-11T02:30:55.022Z,-0.50
2019-01-11T02:33:25.075Z,-0.60
2019-01-11T02:35:54.316Z,-0.60
2019-01-11T02:38:23.413Z,-0.60
2019-01-11T02:40:52.276Z,-0.60
2019-01-11T02:43:21.077Z,-0.60
2019-01-11T02:45:49.907Z,-0.60
2019-01-11T02:48:18.720Z,-0.60
2019-01-11T02:50:48.281Z,-0.60
2019-01-11T02:53:17.130Z,-0.70
2019-01-11T02:55:46.090Z,-0.80
2019-01-11T02:58:14.910Z,-0.80
2019-01-11T03:00:43.784Z,-0.80
2019-01-11T03:03:12.729Z,-0.80
2019-01-11T03:05:41.710Z,-0.80
2019-01-11T03:08:10.583Z,-0.90
2019-01-11T03:10:39.558Z,-0.80
2019-01-11T03:13:08.499Z,-0.90
2019-01-11T03:15:37.455Z,-0.90
2019-01-11T03:18:06.392Z,-0.90
2019-01-11T03:20:35.400Z,-1.00
2019-01-11T03:23:23.406Z,-1.00
2019-01-11T03:25:52.285Z,-1.00
2019-01-11T03:28:21.205Z,-1.00
2019-01-11T03:30:50.502Z,-1.00
2019-01-11T03:33:19.449Z,-1.00
2019-01-11T03:35:48.545Z,-1.00
2019-01-11T03:38:17.432Z,-1.00
2019-01-11T03:40:46.246Z,-1.00
2019-01-11T03:43:15.102Z,-0.90
2019-01-11T03:45:44.012Z,-1.00
2019-01-11T03:48:12.912Z,-1.00
2019-01-11T03:50:41.899Z,-1.00
2019-01-11T03:53:10.819Z,-1.00
2019-01-11T03:55:39.758Z,-1.10
2019-01-11T03:58:08.736Z,-1.00
2019-01-11T04:00:37.644Z,-1.00
2019-01-11T04:03:06.612Z,-1.00
2019-01-11T04:05:35.567Z,-1.10
2019-01-11T04:08:04.509Z,-1.00
2019-01-11T04:10:33.423Z,-1.10
2019-01-11T04:13:02.298Z,-1.10
2019-01-11T04:15:31.188Z,-1.00
2019-01-11T04:18:15.981Z,-1.10
2019-01-11T04:20:44.773Z,-1.10
2019-01-11T04:23:13.720Z,-1.10
2019-01-11T04:25:46.763Z,-1.20
2019-01-11T04:28:15.646Z,-1.10
2019-01-11T04:30:44.516Z,-1.10
2019-01-11T04:33:13.406Z,-1.10
2019-01-11T04:35:42.353Z,-1.20
2019-01-11T04:38:11.658Z,-1.20
2019-01-11T04:40:40.467Z,-1.20
2019-01-11T04:43:09.376Z,-1.30
2019-01-11T04:45:38.348Z,-1.30
2019-01-11T04:48:07.222Z,-1.30
2019-01-11T04:50:36.028Z,-1.30
2019-01-11T04:53:05.135Z,-1.30
2019-01-11T04:55:34.241Z,-1.30
2019-01-11T04:58:03.035Z,-1.30
2019-01-11T05:00:31.824Z,-1.30
2019-01-11T05:03:00.767Z,-1.30
2019-01-11T05:05:29.913Z,-1.40
2019-01-11T05:07:58.777Z,-1.40
2019-01-11T05:10:27.738Z,-1.40
2019-01-11T05:12:58.500Z,-1.40
2019-01-11T05:15:27.369Z,-1.40
2019-01-11T05:17:56.588Z,-1.40
2019-01-11T05:20:25.576Z,-1.40
2019-01-11T05:22:54.481Z,-1.40
2019-01-11T05:25:23.354Z,-1.40
2019-01-11T05:27:52.144Z,-1.30
2019-01-11T05:30:21.568Z,-1.30
2019-01-11T05:32:50.576Z,-1.20
2019-01-11T05:35:19.443Z,-1.30
2019-01-11T05:37:48.463Z,-1.30
2019-01-11T05:40:19.383Z,-1.30
2019-01-11T05:42:48.262Z,-1.30
2019-01-11T05:45:18.082Z,-1.40
2019-01-11T05:47:47.601Z,-1.40
2019-01-11T05:50:23.998Z,-1.40
2019-01-11T05:52:49.322Z,-1.40
2019-01-11T05:55:46.521Z,-1.20
2019-01-11T05:58:44.037Z,-1.20
2019-01-11T06:01:14.977Z,-1.20
2019-01-11T06:03:44.189Z,-1.30
2019-01-11T06:06:13.577Z,-1.30
2019-01-11T06:08:43.998Z,-1.30
2019-01-11T06:11:12.928Z,-1.30
2019-01-11T06:13:41.796Z,-1.30
2019-01-11T06:16:11.848Z,-1.30
2019-01-11T06:18:40.915Z,-1.40
2019-01-11T06:21:09.796Z,-1.40
2019-01-11T06:23:38.634Z,-1.40
2019-01-11T06:26:07.658Z,-1.40
2019-01-11T06:28:37.006Z,-1.40
2019-01-11T06:31:05.896Z,-1.40
2019-01-11T06:33:34.779Z,-1.40
2019-01-11T06:36:03.761Z,-1.40
2019-01-11T06:38:32.641Z,-1.40
2019-01-11T06:41:01.563Z,-1.40
2019-01-11T06:43:30.447Z,-1.50
2019-01-11T06:45:59.241Z,-1.50
2019-01-11T06:48:43.961Z,-1.50
2019-01-11T06:51:12.862Z,-1.50
2019-01-11T06:53:41.760Z,-1.50
2019-01-11T06:56:10.836Z,-1.50
2019-01-11T06:58:39.728Z,-1.50
2019-01-11T07:01:08.597Z,-1.50
2019-01-11T07:03:38.178Z,-1.50
2019-01-11T07:06:07.135Z,-1.40
2019-01-11T07:08:35.934Z,-1.40
2019-01-11T07:11:05.608Z,-1.40
2019-01-11T07:13:34.609Z,-1.40
2019-01-11T07:16:03.503Z,-1.40
2019-01-11T07:18:32.707Z,-1.40
2019-01-11T07:21:01.512Z,-1.40
2019-01-11T07:23:30.296Z,-1.30
2019-01-11T07:25:59.078Z,-1.30
2019-01-11T07:28:28.205Z,-1.30
2019-01-11T07:31:06.155Z,-1.40
2019-01-11T07:33:36.075Z,-1.40
2019-01-11T07:36:23.364Z,-1.40
2019-01-11T07:38:52.716Z,-1.50
2019-01-11T07:41:22.020Z,-1.50
2019-01-11T07:43:51.206Z,-1.50
2019-01-11T07:46:20.216Z,-1.40
2019-01-11T07:48:49.137Z,-1.40
2019-01-11T07:51:18.126Z,-1.30
2019-01-11T07:53:47.105Z,-1.20
2019-01-11T07:56:16.034Z,-1.10
2019-01-11T07:58:45.641Z,-1.10
2019-01-11T08:01:14.650Z,-1.20
2019-01-11T08:03:43.638Z,-1.20
2019-01-11T08:06:12.739Z,-1.10
2019-01-11T08:08:41.661Z,-1.20
2019-01-11T08:11:10.612Z,-1.20
2019-01-11T08:13:39.607Z,-1.10
2019-01-11T08:16:08.633Z,-1.00
2019-01-11T08:18:37.921Z,-1.00
2019-01-11T08:21:06.851Z,-1.00
2019-01-11T08:23:35.842Z,-0.90
2019-01-11T08:26:04.836Z,-0.80
2019-01-11T08:28:34.526Z,-0.80
2019-01-11T08:31:03.465Z,-0.90
2019-01-11T08:33:34.354Z,-0.90
2019-01-11T08:36:03.961Z,-1.00
2019-01-11T08:38:33.156Z,-1.00
2019-01-11T08:41:02.252Z,-0.90
2019-01-11T08:43:31.126Z,-0.80
2019-01-11T08:46:00.049Z,-0.80
2019-01-11T08:48:29.372Z,-0.70
2019-01-11T08:51:02.582Z,-0.70
2019-01-11T08:53:30.327Z,-0.70
2019-01-11T08:55:59.356Z,-0.70
2019-01-11T08:58:28.671Z,-0.70
2019-01-11T09:00:57.705Z,-0.60
2019-01-11T09:03:29.107Z,-0.70
2019-01-11T09:05:58.102Z,-0.70
2019-01-11T09:08:27.983Z,-0.70
2019-01-11T09:10:57.553Z,-0.70
2019-01-11T09:13:27.703Z,-0.70
2019-01-11T09:15:56.634Z,-0.80
2019-01-11T09:18:47.148Z,-0.80
2019-01-11T09:21:16.187Z,-0.70
2019-01-11T09:23:45.151Z,-0.60
2019-01-11T09:26:14.098Z,-0.60
2019-01-11T09:28:43.133Z,-0.50
2019-01-11T09:31:12.431Z,-0.50
2019-01-11T09:33:41.412Z,-0.50
2019-01-11T09:36:10.480Z,-0.40
2019-01-11T09:38:39.434Z,-0.40
2019-01-11T09:41:08.707Z,-0.50
2019-01-11T09:43:38.105Z,-0.50
2019-01-11T09:46:07.094Z,-0.50
2019-01-11T09:48:36.410Z,-0.50
2019-01-11T09:51:05.598Z,-0.50
2019-01-11T09:53:34.604Z,-0.40
2019-01-11T09:56:04.005Z,-0.40
2019-01-11T09:58:33.244Z,-0.40
2019-01-11T10:01:02.256Z,-0.30
2019-01-11T10:03:31.855Z,-0.30
2019-01-11T10:06:00.908Z,-0.30
2019-01-11T10:08:30.141Z,-0.40
2019-01-11T10:11:00.560Z,-0.30
2019-01-11T10:13:29.808Z,-0.30
2019-01-11T10:15:59.955Z,-0.30
2019-01-11T10:18:28.841Z,-0.20
2019-01-11T10:20:57.805Z,-0.20
2019-01-11T10:23:26.726Z,-0.10
2019-01-11T10:25:55.996Z,-0.10
2019-01-11T10:28:24.876Z,-0.10
2019-01-11T10:30:54.209Z,-0.10
2019-01-11T10:33:23.230Z,-0.10
2019-01-11T10:35:53.322Z,-0.10
2019-01-11T10:38:22.254Z,0.00
2019-01-11T10:40:51.650Z,0.00
2019-01-11T10:43:20.729Z,-0.10
2019-01-11T10:45:49.800Z,-0.10
2019-01-11T10:48:18.782Z,-0.10
2019-01-11T10:50:47.649Z,-0.20
2019-01-11T10:53:16.555Z,-0.30
2019-01-11T10:55:45.498Z,-0.30
2019-01-11T10:58:14.472Z,-0.30
2019-01-11T11:00:43.373Z,-0.40
2019-01-11T11:03:12.253Z,-0.40
2019-01-11T11:05:41.109Z,-0.40
2019-01-11T11:08:10.345Z,-0.30
2019-01-11T11:10:39.327Z,-0.30
2019-01-11T11:13:08.596Z,-0.20
2019-01-11T11:15:39.318Z,-0.10
2019-01-11T11:18:08.301Z,-0.10
2019-01-11T11:20:37.132Z,0.00
2019-01-11T11:23:06.016Z,0.00
2019-01-11T11:25:34.913Z,0.00
2019-01-11T11:28:03.796Z,0.00
2019-01-11T11:30:32.896Z,0.00
2019-01-11T11:33:03.008Z,0.00
2019-01-11T11:35:32.744Z,0.10
2019-01-11T11:38:01.721Z,0.10
2019-01-11T11:40:31.760Z,0.10
2019-01-11T11:43:01.035Z,0.10
2019-01-11T11:45:30.261Z,0.00
2019-01-11T11:47:59.320Z,0.00
2019-01-11T11:50:28.297Z,0.10
2019-01-11T11:52:57.290Z,0.10
2019-01-11T11:55:26.353Z,0.20
2019-01-11T11:57:55.381Z,0.20
2019-01-11T12:00:26.752Z,0.10
2019-01-11T12:02:55.749Z,0.10
2019-01-11T12:05:24.784Z,0.10
2019-01-11T12:07:54.128Z,0.10
2019-01-11T12:10:23.149Z,0.10
2019-01-11T12:12:52.034Z,0.10
2019-01-11T12:15:21.324Z,0.10
2019-01-11T12:17:50.722Z,0.10
2019-01-11T12:20:25.368Z,0.00
2019-01-11T12:22:54.380Z,0.00
2019-01-11T12:25:23.332Z,0.00
2019-01-11T12:27:52.239Z,0.10
2019-01-11T12:30:21.112Z,0.10
2019-01-11T12:32:49.946Z,0.00
2019-01-11T12:35:18.837Z,0.10
2019-01-11T12:37:47.879Z,0.20
2019-01-11T12:40:16.848Z,0.10
2019-01-11T12:42:45.816Z,0.20
2019-01-11T12:45:15.102Z,0.30
2019-01-11T12:47:43.968Z,0.30
2019-01-11T12:50:28.141Z,0.30
2019-01-11T12:52:57.098Z,0.40
2019-01-11T12:55:25.989Z,0.50
2019-01-11T12:57:55.050Z,0.40
2019-01-11T13:00:24.049Z,0.50
2019-01-11T13:02:52.987Z,0.60
2019-01-11T13:05:22.372Z,0.60
2019-01-11T13:07:51.163Z,0.70
2019-01-11T13:10:20.938Z,0.60
2019-01-11T13:12:50.287Z,0.50
2019-01-11T13:15:21.187Z,0.50
2019-01-11T13:17:52.007Z,0.60
2019-01-11T13:20:22.022Z,0.40
2019-01-11T13:22:51.224Z,0.40
2019-01-11T13:25:20.111Z,0.40
2019-01-11T13:27:48.977Z,0.50
2019-01-11T13:30:18.696Z,0.40
2019-01-11T13:32:47.806Z,0.40
2019-01-11T13:35:16.761Z,0.30
2019-01-11T13:37:45.700Z,0.20
2019-01-11T13:40:23.471Z,0.20
2019-01-11T13:42:52.715Z,0.20
2019-01-11T13:45:22.528Z,0.10
2019-01-11T13:47:51.710Z,0.00
2019-01-11T13:50:35.036Z,0.00
2019-01-11T13:53:04.586Z,0.00
2019-01-11T13:55:33.670Z,0.00
2019-01-11T13:58:02.857Z,0.00
2019-01-11T14:00:31.741Z,0.00
2019-01-11T14:03:00.972Z,0.00
2019-01-11T14:05:29.934Z,0.10
2019-01-11T14:07:59.137Z,0.00
2019-01-11T14:10:28.035Z,-0.10
2019-01-11T14:12:56.958Z,-0.10
2019-01-11T14:15:25.945Z,-0.10
2019-01-11T14:17:54.905Z,-0.10
2019-01-11T14:20:23.779Z,-0.10
2019-01-11T14:22:52.757Z,-0.20
2019-01-11T14:25:21.592Z,-0.20
2019-01-11T14:27:50.425Z,-0.20
2019-01-11T14:30:20.034Z,-0.20
2019-01-11T14:32:49.055Z,-0.20
2019-01-11T14:35:18.373Z,-0.20
2019-01-11T14:37:47.372Z,-0.20
2019-01-11T14:40:16.417Z,-0.20
2019-01-11T14:42:45.545Z,-0.10
2019-01-11T14:45:15.966Z,-0.10
2019-01-11T14:47:45.144Z,-0.10
2019-01-11T14:50:16.377Z,-0.10
2019-01-11T14:52:45.391Z,-0.10
2019-01-11T14:55:14.549Z,-0.10
2019-01-11T14:57:43.746Z,-0.20
2019-01-11T15:00:16.017Z,-0.20
2019-01-11T15:02:44.912Z,-0.20
2019-01-11T15:05:14.657Z,-0.20
2019-01-11T15:07:43.881Z,-0.20
2019-01-11T15:10:13.759Z,-0.30
2019-01-11T15:12:43.427Z,-0.20
2019-01-11T15:15:12.349Z,-0.20
2019-01-11T15:17:41.225Z,-0.30
2019-01-11T15:20:12.830Z,-0.20
2019-01-11T15:22:42.270Z,-0.20
2019-01-11T15:25:11.396Z,-0.20
2019-01-11T15:27:40.289Z,-0.20
2019-01-11T15:30:14.927Z,-0.30
2019-01-11T15:32:43.808Z,-0.30
2019-01-11T15:35:13.021Z,-0.30
2019-01-11T15:37:42.002Z,-0.30
2019-01-11T15:40:14.532Z,-0.30
2019-01-11T15:42:43.338Z,-0.30
2019-01-11T15:45:12.308Z,-0.40
2019-01-11T15:47:41.210Z,-0.30
2019-01-11T15:50:12.037Z,-0.30
2019-01-11T15:52:40.870Z,-0.30
2019-01-11T15:55:10.738Z,-0.30
2019-01-11T15:57:42.775Z,-0.30
2019-01-11T16:00:20.224Z,-0.30
2019-01-11T16:02:49.145Z,-0.30
2019-01-11T16:05:19.364Z,-0.30
2019-01-11T16:07:50.747Z,-0.40
2019-01-11T16:10:21.971Z,-0.40
2019-01-11T16:12:56.964Z,-0.30
2019-01-11T16:15:59.976Z,-0.30
2019-01-11T16:18:31.322Z,-0.30
2019-01-11T16:21:00.489Z,-0.30
2019-01-11T16:23:29.361Z,-0.30
2019-01-11T16:25:58.261Z,-0.30
2019-01-11T16:28:27.545Z,-0.30
2019-01-11T16:30:56.366Z,-0.30
2019-01-11T16:33:25.431Z,-0.30
2019-01-11T16:35:54.376Z,-0.30
2019-01-11T16:38:23.188Z,-0.30
2019-01-11T16:40:53.005Z,-0.30
2019-01-11T16:43:22.203Z,-0.30
2019-01-11T16:45:51.404Z,-0.30
2019-01-11T16:48:20.282Z,-0.30
2019-01-11T16:50:49.083Z,-0.20
2019-01-11T16:53:18.290Z,-0.20
2019-01-11T16:55:47.156Z,-0.20
2019-01-11T16:58:16.156Z,-0.20
2019-01-11T17:00:45.045Z,-0.20
2019-01-11T17:03:13.895Z,-0.20
2019-01-11T17:05:42.801Z,-0.20
2019-01-11T17:08:11.696Z,-0.20
2019-01-11T17:10:40.532Z,-0.20
2019-01-11T17:13:09.418Z,-0.20
2019-01-11T17:15:38.356Z,-0.20
2019-01-11T17:18:07.381Z,-0.20
2019-01-11T17:20:36.178Z,-0.20
2019-01-11T17:23:05.030Z,-0.20
2019-01-11T17:25:34.667Z,-0.20
2019-01-11T17:28:03.601Z,-0.20
2019-01-11T17:30:32.901Z,-0.20
2019-01-11T17:33:01.708Z,-0.20
2019-01-11T17:35:30.500Z,-0.20
2019-01-11T17:37:59.471Z,-0.20
2019-01-11T17:40:28.602Z,-0.20
2019-01-11T17:42:57.834Z,-0.20
2019-01-11T17:45:26.695Z,-0.20
2019-01-11T17:47:55.630Z,-0.20
2019-01-11T17:50:24.918Z,-0.20
2019-01-11T17:52:59.798Z,-0.20
2019-01-11T17:55:26.177Z,-0.20
2019-01-11T17:57:55.501Z,-0.20
2019-01-11T18:00:24.532Z,-0.20
2019-01-11T18:02:53.788Z,-0.20
2019-01-11T18:05:22.666Z,-0.30
2019-01-11T18:07:51.528Z,-0.30
2019-01-11T18:10:20.509Z,-0.30
2019-01-11T18:12:49.332Z,-0.30
2019-01-11T18:15:20.592Z,-0.30
2019-01-11T18:17:50.082Z,-0.30
2019-01-11T18:20:24.764Z,-0.30
2019-01-11T18:22:54.085Z,-0.30
2019-01-11T18:25:22.976Z,-0.20
2019-01-11T18:27:51.792Z,-0.20
2019-01-11T18:30:22.965Z,-0.20
2019-01-11T18:32:51.838Z,-0.20
2019-01-11T18:35:20.823Z,-0.20
2019-01-11T18:37:55.978Z,-0.20
2019-01-11T18:40:26.421Z,-0.20
2019-01-11T18:42:55.696Z,-0.10
2019-01-11T18:45:28.769Z,-0.30
2019-01-11T18:47:55.694Z,-0.10
2019-01-11T18:50:24.731Z,-0.10
2019-01-11T18:52:55.011Z,-0.10
2019-01-11T18:55:23.992Z,-0.10
2019-01-11T18:57:52.942Z,-0.10
2019-01-11T19:00:31.230Z,-0.10
2019-01-11T19:03:00.049Z,0.00
2019-01-11T19:05:29.143Z,0.00
2019-01-11T19:07:58.018Z,0.00
2019-01-11T19:10:27.829Z,0.00
2019-01-11T19:12:56.740Z,0.00
2019-01-11T19:15:48.731Z,0.00
2019-01-11T19:18:17.815Z,0.00
2019-01-11T19:20:47.040Z,0.10
2019-01-11T19:23:20.366Z,0.10
2019-01-11T19:25:47.060Z,0.10
2019-01-11T19:28:15.939Z,0.10
2019-01-11T19:30:44.895Z,0.10
2019-01-11T19:33:15.186Z,0.10
2019-01-11T19:35:44.495Z,0.20
2019-01-11T19:41:08.322Z,0.20
2019-01-11T19:43:37.665Z,0.20
2019-01-11T19:46:06.543Z,0.30
2019-01-11T19:48:35.726Z,0.30
2019-01-11T19:51:04.723Z,0.30
2019-01-11T19:53:33.951Z,0.30
2019-01-11T19:56:02.758Z,0.40
2019-01-11T19:58:32.284Z,0.30
2019-01-11T20:01:01.348Z,0.40
2019-01-11T20:03:30.267Z,0.40
2019-01-11T20:05:59.222Z,0.40
2019-01-11T20:08:28.192Z,0.40
2019-01-11T20:10:57.188Z,0.30
2019-01-11T20:13:26.461Z,0.40
2019-01-11T20:15:55.527Z,0.30
2019-01-11T20:18:24.405Z,0.30
2019-01-11T20:20:53.298Z,0.30
2019-01-11T20:23:22.152Z,0.40
2019-01-11T20:25:51.099Z,0.40
2019-01-11T20:28:19.957Z,0.40
2019-01-11T20:30:48.849Z,0.30
2019-01-11T20:33:17.653Z,0.30
2019-01-11T20:35:46.620Z,0.30
2019-01-11T20:38:16.052Z,0.40
2019-01-11T20:40:44.941Z,0.30
2019-01-11T20:43:14.157Z,0.30
2019-01-11T20:45:43.183Z,0.30
2019-01-11T20:48:12.086Z,0.20
2019-01-11T20:50:41.532Z,0.20
2019-01-11T20:53:10.562Z,0.30
2019-01-11T20:55:39.700Z,0.30
2019-01-11T20:58:08.961Z,0.30
2019-01-11T21:00:37.945Z,0.30
2019-01-11T21:03:07.768Z,0.30
2019-01-11T21:05:36.718Z,0.30
2019-01-11T21:08:05.991Z,0.30
2019-01-11T21:10:35.598Z,0.40
2019-01-11T21:13:05.617Z,0.40
2019-01-11T21:15:35.087Z,0.40
2019-01-11T21:18:04.570Z,0.50
2019-01-11T21:20:33.521Z,0.50
2019-01-11T21:23:02.901Z,0.50
2019-01-11T21:25:31.697Z,0.50
2019-01-11T21:28:00.624Z,0.50
2019-01-11T21:30:30.970Z,0.50
2019-01-11T21:32:59.992Z,0.60
2019-01-11T21:35:29.172Z,0.60
2019-01-11T21:37:58.207Z,0.60
2019-01-11T21:40:27.557Z,0.60
2019-01-11T21:42:57.454Z,0.60
2019-01-11T21:45:27.030Z,0.60
2019-01-11T21:47:56.327Z,0.60
2019-01-11T21:50:29.036Z,0.60
2019-01-11T21:52:59.529Z,0.60
2019-01-11T21:55:28.405Z,0.70
2019-01-11T21:57:57.733Z,0.70
2019-01-11T22:00:30.008Z,0.70
2019-01-11T22:02:59.292Z,0.70
2019-01-11T22:05:28.235Z,0.70
2019-01-11T22:07:57.031Z,0.70
2019-01-11T22:10:25.948Z,0.70
2019-01-11T22:12:54.732Z,0.70
2019-01-11T22:15:23.656Z,0.70
2019-01-11T22:17:52.729Z,0.70
2019-01-11T22:20:21.941Z,0.70
2019-01-11T22:22:50.826Z,0.80
2019-01-11T22:25:19.682Z,0.80
2019-01-11T22:27:48.666Z,0.80
2019-01-11T22:30:19.848Z,0.80
2019-01-11T22:32:48.740Z,0.80
2019-01-11T22:35:18.511Z,0.80
2019-01-11T22:37:47.675Z,0.80
2019-01-11T22:40:18.689Z,0.80
2019-01-11T22:42:49.090Z,0.80
2019-01-11T22:45:17.969Z,0.80
2019-01-11T22:47:48.125Z,0.80
2019-01-11T22:50:18.197Z,0.80
2019-01-11T22:52:47.093Z,0.80
2019-01-11T22:55:16.480Z,0.80
2019-01-11T22:57:45.754Z,0.80
2019-01-11T23:00:40.232Z,0.70
2019-01-11T23:03:12.753Z,0.60
2019-01-11T23:05:41.594Z,0.60
2019-01-11T23:08:15.524Z,0.60
2019-01-11T23:11:20.556Z,0.60
2019-01-11T23:13:49.407Z,0.60
2019-01-11T23:16:32.970Z,0.60
2019-01-11T23:19:02.189Z,0.60
2019-01-11T23:21:31.004Z,0.60
2019-01-11T23:23:59.890Z,0.60
2019-01-11T23:26:28.972Z,0.60
2019-01-11T23:28:57.776Z,0.60
2019-01-11T23:31:26.845Z,0.60
2019-01-11T23:33:58.056Z,0.60
2019-01-11T23:36:26.876Z,0.70
2019-01-11T23:38:55.848Z,0.70
2019-01-11T23:41:24.608Z,0.70
2019-01-11T23:43:53.525Z,0.70
2019-01-11T23:46:23.248Z,0.80
2019-01-11T23:48:52.257Z,0.80
2019-01-11T23:51:21.137Z,0.80
2019-01-11T23:53:50.791Z,0.80
2019-01-11T23:56:19.958Z,0.80
2019-01-11T23:58:48.834Z,0.90
